KHOP/HOP METAR and TAF weather

Enter ICAO airport designator
Station Type Date Time Source
KHOP METAR 2021/03/01 03:56 UTC NOAA

KHOP 010356Z AUTO 22005KT 8SM -RA OVC042 14/14 A2992 RMK AO2 SLP132 P0014 T01420142


Station Type Date Time Source
KHOP Decoded METAR 2021/03/01 03:56 UTC NOAA

Fort Campbell U. S. Army Airfield, KY, United States (KHOP) 36-40N 087-30W 174M
Feb 28, 2021 - 10:56 PM EST / 2021.03.01 0356 UTC
Wind: from the SW (220 degrees) at 6 MPH (5 KT):0
Visibility: 8 mile(s):0
Sky conditions: overcast
Weather: light rain
Precipitation last hour: 0.14 inches
Temperature: 57.6 F (14.2 C)
Dew Point: 57.6 F (14.2 C)
Relative Humidity: 100%
Pressure (altimeter): 29.92 in. Hg (1013 hPa)
ob: KHOP 010356Z AUTO 22005KT 8SM -RA OVC042 14/14 A2992 RMK AO2 SLP132 P0014 T01420142
cycle: 4

Station Type Date Time Source
KHOP TAF 2021/03/01 00:09 UTC NOAA

TAF KHOP 010000Z 0100/0206 VRB06KT 3200 RA BKN002 OVC012 QNH2982INS
TEMPO 0100/0102 23020G25KT 1600 -TSRA OVC012CB
BECMG 0100/0102 VRB06KT 6000 RA FEW002 SCT012 OVC025 QNH2983INS
BECMG 0108/0109 33009KT 9000 -RA BKN005 510053 510553 QNH3002INS
BECMG 0110/0111 34009KT 9999 NSW BKN013 510063 QNH3004INS
BECMG 0111/0112 34010G20KT 9999 SCT015 510063 QNH3014INS
BECMG 0123/0124 VRB06KT 9999 SKC QNH3031INS TX18/0100Z TN05/0114Z

Example: see airport list